This is the latest recevied weather packets stored in our database for station/object JH1CWL-13. If no packets are shown the sender has not sent any weather packets the latest 10 day(s).
| Time | Temp. | Humidity | Pressure | Rain* | Wind** | Luminosity | Snow |
|---|---|---|---|---|---|---|---|
| 1777726526 | 15° C | 79% | 1009.4 hPa | 0 mm | - | - | - |
| 1777725325 | 15° C | 77% | 1009 hPa | 0 mm | - | - | - |
| 1777724124 | 15.56° C | 76% | 1008.8 hPa | 0 mm | - | - | - |
| 1777722924 | 15.56° C | 75% | 1008.5 hPa | 0 mm | - | - | - |
| 1777721725 | 15.56° C | 74% | 1008.3 hPa | 0 mm | - | - | - |
| 1777720525 | 16.11° C | 71% | 1007.9 hPa | 0 mm | - | - | - |
| 1777719326 | 16.67° C | 70% | 1007.8 hPa | 0 mm | - | - | - |
| 1777718124 | 16.67° C | 69% | 1007.4 hPa | 0 mm | - | - | - |
| 1777716924 | 17.22° C | 66% | 1007.2 hPa | 0 mm | - | - | - |
| 1777715726 | 18.33° C | 63% | 1007.1 hPa | 0 mm | - | - | - |
| 1777714525 | 19.44° C | 59% | 1006.8 hPa | 0 mm | - | - | - |
| 1777713325 | 20.56° C | 56% | 1006.7 hPa | 0 mm | - | - | - |
| 1777712124 | 21.11° C | 53% | 1006.4 hPa | 0 mm | - | - | - |
| 1777710925 | 22.78° C | 49% | 1006.1 hPa | 0 mm | - | - | - |
| 1777709726 | 24.44° C | 39% | 1006 hPa | 0 mm | - | - | - |
| 1777708526 | 25° C | 32% | 1005.6 hPa | 0 mm | - | - | - |
| 1777707326 | 25.56° C | 31% | 1005.4 hPa | 0 mm | - | - | - |
| 1777706124 | 25.56° C | 32% | 1005.1 hPa | 0 mm | - | - | - |
| 1777704925 | 26.67° C | 32% | 1004.7 hPa | 0 mm | - | - | - |
| 1777703724 | 26.67° C | 29% | 1004.6 hPa | 0 mm | - | - | - |
| 1777702524 | 26.11° C | 28% | 1004.3 hPa | 0 mm | - | - | - |
| 1777701325 | 26.11° C | 31% | 1004.4 hPa | 0 mm | - | - | - |
| 1777700124 | 26.67° C | 33% | 1004.1 hPa | 0 mm | - | - | - |
| 1777698924 | 26.11° C | 36% | 1004.2 hPa | 0 mm | - | - | - |
| 1777697724 | 25.56° C | 33% | 1004.1 hPa | 0 mm | - | - | - |
* Rain latest hour (hover to see other rain measurements)
** Current wind speed in m/s (hover to see current wind gust speed)